createdAt,value
2023-04-16T00:00:51.321Z,82.06
2023-04-16T00:01:51.418Z,76.61
2023-04-16T00:02:51.502Z,63.92
2023-04-16T00:03:51.822Z,57.28
2023-04-16T00:04:51.468Z,57.24
2023-04-16T00:05:51.461Z,65.10
2023-04-16T00:06:51.540Z,69.41
2023-04-16T00:07:51.563Z,73.62
2023-04-16T00:08:51.602Z,63.83
2023-04-16T00:09:51.654Z,78.76
2023-04-16T00:10:51.701Z,88.76
2023-04-16T00:11:51.733Z,97.16
2023-04-16T00:12:51.806Z,93.93
2023-04-16T00:13:51.854Z,83.63
2023-04-16T00:14:51.889Z,73.36
2023-04-16T00:15:51.937Z,65.94
2023-04-16T00:16:52.044Z,59.18
2023-04-16T00:17:52.072Z,70.88
2023-04-16T00:18:52.058Z,81.74
2023-04-16T00:19:52.087Z,75.53
2023-04-16T00:20:52.114Z,80.28
2023-04-16T00:21:52.200Z,80.43
2023-04-16T00:22:52.218Z,96.15
2023-04-16T00:23:52.273Z,93.97
2023-04-16T00:24:52.290Z,94.15
2023-04-16T00:25:52.325Z,86.55
2023-04-16T00:26:52.334Z,75.52
2023-04-16T00:27:52.364Z,72.18
2023-04-16T00:28:52.401Z,68.41
2023-04-16T00:29:52.426Z,67.60
2023-04-16T00:30:52.471Z,61.56
2023-04-16T00:31:52.528Z,63.20
2023-04-16T00:32:52.612Z,69.77
2023-04-16T00:33:52.604Z,86.06
2023-04-16T00:34:52.678Z,93.30
2023-04-16T00:35:52.678Z,93.08
2023-04-16T00:36:52.679Z,84.01
2023-04-16T00:37:52.706Z,71.99
2023-04-16T00:38:52.743Z,63.27
2023-04-16T00:39:52.780Z,62.58
2023-04-16T00:40:52.807Z,59.45
2023-04-16T00:41:52.867Z,62.52
2023-04-16T00:42:52.893Z,67.29
2023-04-16T00:43:52.916Z,73.38
2023-04-16T00:44:52.955Z,73.57
2023-04-16T00:45:53.058Z,70.45
2023-04-16T00:46:53.068Z,76.63
2023-04-16T00:47:53.165Z,78.85
2023-04-16T00:48:53.144Z,69.22
2023-04-16T00:49:53.170Z,66.69
2023-04-16T00:50:53.228Z,64.13
2023-04-16T00:51:53.272Z,63.41
2023-04-16T00:52:53.325Z,62.63
2023-04-16T00:53:53.353Z,68.18
2023-04-16T00:54:53.418Z,73.90
2023-04-16T00:55:53.454Z,93.13
2023-04-16T00:56:53.513Z,98.24
2023-04-16T00:57:53.525Z,90.82
2023-04-16T00:58:53.554Z,79.93
2023-04-16T00:59:53.602Z,89.61
2023-04-16T01:00:53.634Z,84.95
2023-04-16T01:01:53.831Z,86.06
2023-04-16T01:02:53.850Z,81.16
2023-04-16T01:03:53.919Z,69.72
2023-04-16T01:04:53.803Z,70.56
2023-04-16T01:05:53.836Z,74.05
2023-04-16T01:06:53.894Z,74.31
2023-04-16T01:07:53.926Z,77.38
2023-04-16T01:08:53.949Z,81.61
2023-04-16T01:09:53.997Z,86.82
2023-04-16T01:10:54.023Z,90.51
2023-04-16T01:11:54.040Z,92.24
2023-04-16T01:12:54.068Z,94.88
2023-04-16T01:13:54.103Z,95.38
2023-04-16T01:14:54.121Z,97.80
2023-04-16T01:15:54.183Z,97.82
2023-04-16T01:16:54.172Z,98.67
2023-04-16T01:17:54.207Z,99.33
2023-04-16T01:18:54.252Z,98.54
2023-04-16T01:19:54.302Z,101.23
2023-04-16T01:20:54.319Z,101.32
2023-04-16T01:21:54.354Z,100.03
2023-04-16T01:22:54.353Z,99.53
2023-04-16T01:23:54.408Z,101.74
2023-04-16T01:24:54.446Z,100.74
2023-04-16T01:25:54.482Z,98.02
2023-04-16T01:26:54.521Z,101.81
2023-04-16T01:27:54.558Z,106.55
2023-04-16T01:28:54.598Z,105.01
2023-04-16T01:29:54.595Z,108.07
2023-04-16T01:30:54.627Z,108.61
2023-04-16T01:31:54.695Z,108.51
2023-04-16T01:32:54.728Z,105.77
2023-04-16T01:33:54.727Z,106.30
2023-04-16T01:34:54.750Z,109.56
2023-04-16T01:35:54.785Z,108.42
2023-04-16T01:36:54.844Z,108.33
2023-04-16T01:37:54.877Z,109.59
2023-04-16T01:38:54.916Z,109.59
2023-04-16T01:39:54.933Z,108.93
2023-04-16T01:40:54.984Z,112.39
2023-04-16T01:41:55.013Z,109.96
2023-04-16T01:42:55.059Z,116.47
2023-04-16T01:43:55.109Z,115.70
2023-04-16T01:44:55.125Z,117.02
2023-04-16T01:45:55.147Z,121.70
2023-04-16T01:46:55.216Z,119.97
2023-04-16T01:47:55.249Z,120.81
2023-04-16T01:48:55.318Z,119.57
2023-04-16T01:49:55.266Z,118.30
2023-04-16T01:50:55.294Z,121.83
2023-04-16T01:51:55.321Z,121.25
2023-04-16T01:52:55.352Z,117.51
2023-04-16T01:53:55.378Z,117.07
2023-04-16T01:54:55.370Z,117.81
2023-04-16T01:55:55.374Z,119.68
2023-04-16T01:56:55.406Z,115.60
2023-04-16T01:57:55.472Z,120.81
2023-04-16T01:58:55.515Z,119.09
2023-04-16T01:59:55.541Z,118.16
2023-04-16T02:00:55.656Z,111.92
2023-04-16T02:01:55.799Z,110.91
2023-04-16T02:02:55.720Z,109.81
2023-04-16T02:03:55.742Z,116.08
2023-04-16T02:04:55.701Z,113.31
2023-04-16T02:05:55.736Z,112.20
2023-04-16T02:06:55.770Z,109.75
2023-04-16T02:07:55.814Z,105.45
2023-04-16T02:08:55.840Z,108.01
2023-04-16T02:09:55.856Z,111.33
2023-04-16T02:10:55.883Z,110.19
2023-04-16T02:11:55.916Z,112.98
2023-04-16T02:12:55.970Z,112.41
2023-04-16T02:13:55.981Z,114.12
2023-04-16T02:14:56.024Z,108.81
2023-04-16T02:15:55.988Z,111.17
2023-04-16T02:16:56.071Z,109.21
2023-04-16T02:17:56.049Z,109.54
2023-04-16T02:18:56.082Z,107.29
2023-04-16T02:19:56.084Z,103.95
2023-04-16T02:20:56.105Z,110.14
2023-04-16T02:21:56.160Z,108.33
2023-04-16T02:22:56.172Z,105.71
2023-04-16T02:23:56.202Z,100.92
2023-04-16T02:24:56.246Z,106.85
2023-04-16T02:25:56.290Z,117.74
2023-04-16T02:26:56.308Z,129.22
2023-04-16T02:27:56.348Z,134.64
2023-04-16T02:28:56.366Z,134.12
2023-04-16T02:29:56.397Z,130.38
2023-04-16T02:30:56.430Z,126.58
2023-04-16T02:31:56.484Z,129.58
2023-04-16T02:32:56.510Z,127.17
2023-04-16T02:33:56.530Z,125.44
2023-04-16T02:34:56.557Z,116.85
2023-04-16T02:35:56.609Z,112.49
2023-04-16T02:36:56.623Z,114.62
2023-04-16T02:37:56.674Z,115.38
2023-04-16T02:38:56.710Z,117.26
2023-04-16T02:39:56.736Z,120.29
2023-04-16T02:40:56.781Z,129.27
2023-04-16T02:41:56.821Z,128.62
2023-04-16T02:42:56.840Z,127.98
2023-04-16T02:43:56.882Z,122.08
2023-04-16T02:44:56.891Z,124.75
2023-04-16T02:45:56.971Z,132.80
2023-04-16T02:46:56.973Z,134.83
2023-04-16T02:47:57.014Z,135.08
2023-04-16T02:48:57.003Z,138.25
2023-04-16T02:49:57.014Z,140.82
2023-04-16T02:50:57.072Z,138.39
2023-04-16T02:51:57.102Z,140.63
2023-04-16T02:52:57.123Z,144.18
2023-04-16T02:53:57.215Z,146.95
2023-04-16T02:54:57.195Z,147.39
2023-04-16T02:55:57.224Z,153.04
2023-04-16T02:56:57.265Z,155.07
2023-04-16T02:57:57.303Z,154.51
2023-04-16T02:58:57.413Z,155.34
2023-04-16T02:59:57.381Z,157.29
2023-04-16T03:00:57.388Z,161.01
2023-04-16T03:01:57.429Z,164.40
2023-04-16T03:02:57.608Z,164.45
2023-04-16T03:03:57.545Z,162.60
2023-04-16T03:04:57.513Z,164.72
2023-04-16T03:05:57.544Z,169.16
2023-04-16T03:06:57.577Z,176.26
2023-04-16T03:07:57.636Z,177.42
2023-04-16T03:08:57.628Z,168.53
2023-04-16T03:09:57.678Z,167.14
2023-04-16T03:10:57.702Z,168.33
2023-04-16T03:11:57.761Z,166.28
2023-04-16T03:12:57.757Z,165.86
2023-04-16T03:13:57.803Z,167.90
2023-04-16T03:14:57.838Z,166.81
2023-04-16T03:15:57.944Z,166.21
2023-04-16T03:16:57.922Z,160.45
2023-04-16T03:17:58.019Z,167.63
2023-04-16T03:18:58.003Z,165.76
2023-04-16T03:19:58.031Z,163.91
2023-04-16T03:20:58.056Z,164.53
2023-04-16T03:21:58.087Z,168.81
2023-04-16T03:22:58.135Z,171.82
2023-04-16T03:23:58.161Z,177.17
2023-04-16T03:24:58.187Z,181.46
2023-04-16T03:25:58.203Z,174.70
2023-04-16T03:26:58.280Z,168.78
2023-04-16T03:27:58.275Z,166.86
2023-04-16T03:28:58.299Z,170.94
2023-04-16T03:29:58.335Z,165.89
2023-04-16T03:30:58.397Z,161.89
2023-04-16T03:31:58.395Z,159.72
2023-04-16T03:32:58.511Z,155.02
2023-04-16T03:33:58.420Z,157.87
2023-04-16T03:34:58.470Z,157.98
2023-04-16T03:35:58.501Z,153.73
2023-04-16T03:36:58.528Z,153.26
2023-04-16T03:37:58.557Z,150.66
2023-04-16T03:38:58.597Z,152.67
2023-04-16T03:39:58.652Z,159.89
2023-04-16T03:40:58.643Z,161.72
2023-04-16T03:41:58.711Z,157.58
2023-04-16T03:42:58.790Z,157.82
2023-04-16T03:43:58.777Z,156.31
2023-04-16T03:44:58.809Z,158.67
2023-04-16T03:45:58.862Z,156.41
2023-04-16T03:46:59.080Z,155.42
2023-04-16T03:47:59.078Z,157.04
2023-04-16T03:48:58.976Z,163.00
2023-04-16T03:49:58.997Z,167.49
2023-04-16T03:50:59.031Z,167.47
2023-04-16T03:51:59.056Z,164.96
2023-04-16T03:52:59.075Z,171.82
2023-04-16T03:53:59.094Z,176.18
2023-04-16T03:54:59.097Z,172.65
2023-04-16T03:55:59.146Z,172.79
2023-04-16T03:56:59.185Z,175.32
2023-04-16T03:57:59.208Z,183.30
2023-04-16T03:58:59.223Z,195.51
2023-04-16T03:59:59.259Z,214.00
2023-04-16T04:00:59.304Z,211.61
2023-04-16T04:01:59.403Z,213.99
2023-04-16T04:02:59.485Z,227.70
2023-04-16T04:03:59.488Z,242.50
2023-04-16T04:04:59.432Z,240.66
2023-04-16T04:05:59.431Z,218.40
2023-04-16T04:06:59.433Z,211.35
2023-04-16T04:07:59.481Z,202.08
2023-04-16T04:08:59.517Z,199.66
2023-04-16T04:09:59.560Z,203.14
2023-04-16T04:10:59.592Z,197.87
2023-04-16T04:11:59.656Z,198.05
2023-04-16T04:12:59.681Z,205.62
2023-04-16T04:13:59.715Z,203.14
2023-04-16T04:14:59.742Z,199.93
2023-04-16T04:15:59.861Z,194.65
2023-04-16T04:16:59.817Z,192.06
2023-04-16T04:17:59.929Z,190.43
2023-04-16T04:18:59.890Z,192.02
2023-04-16T04:20:01.667Z,190.33
2023-04-16T04:20:59.917Z,186.40
2023-04-16T04:21:59.967Z,185.41
2023-04-16T04:23:00.016Z,188.49
2023-04-16T04:24:00.037Z,190.16
2023-04-16T04:25:00.065Z,189.40
2023-04-16T04:26:00.177Z,194.11
2023-04-16T04:27:00.153Z,201.07
2023-04-16T04:28:00.173Z,204.77
2023-04-16T04:29:00.226Z,200.50
2023-04-16T04:30:00.297Z,197.47
2023-04-16T04:31:00.321Z,195.72
2023-04-16T04:32:00.367Z,196.72
2023-04-16T04:33:00.393Z,196.64
2023-04-16T04:34:00.397Z,195.09
2023-04-16T04:35:00.449Z,199.68
2023-04-16T04:36:00.479Z,196.34
2023-04-16T04:37:00.560Z,196.29
2023-04-16T04:38:01.174Z,200.64
2023-04-16T04:39:00.641Z,203.26
2023-04-16T04:40:00.672Z,203.10
2023-04-16T04:41:00.694Z,209.49
2023-04-16T04:42:00.700Z,207.18
2023-04-16T04:43:00.742Z,212.53
2023-04-16T04:44:00.788Z,210.57
2023-04-16T04:45:00.829Z,211.21
2023-04-16T04:46:00.929Z,209.37
2023-04-16T04:47:00.908Z,209.71
2023-04-16T04:48:01.006Z,209.13
2023-04-16T04:49:00.984Z,210.14
2023-04-16T04:50:01.005Z,208.21
2023-04-16T04:51:01.939Z,203.68
2023-04-16T04:52:01.059Z,201.20
2023-04-16T04:53:01.075Z,203.07
2023-04-16T04:54:01.111Z,203.25
2023-04-16T04:55:01.161Z,201.03
2023-04-16T04:57:01.227Z,201.23
2023-04-16T04:58:01.268Z,202.53
2023-04-16T04:59:01.287Z,202.59
2023-04-16T05:00:01.327Z,203.15
2023-04-16T05:01:01.410Z,205.50
2023-04-16T05:02:01.477Z,199.08
2023-04-16T05:03:01.503Z,196.00
2023-04-16T05:04:01.508Z,193.32
2023-04-16T05:05:01.557Z,189.15
2023-04-16T05:06:01.567Z,182.26
2023-04-16T05:07:01.626Z,184.67
2023-04-16T05:08:01.690Z,182.82
2023-04-16T05:09:01.649Z,183.86
2023-04-16T05:10:01.646Z,184.87
2023-04-16T05:11:01.674Z,184.78
2023-04-16T05:12:01.736Z,195.25
2023-04-16T05:13:01.737Z,194.51
2023-04-16T05:14:01.790Z,194.21
2023-04-16T05:15:01.859Z,200.62
2023-04-16T05:16:01.863Z,212.48
2023-04-16T05:17:02.041Z,207.20
2023-04-16T05:18:01.981Z,200.33
2023-04-16T05:19:02.012Z,189.67
2023-04-16T05:20:02.055Z,192.78
2023-04-16T05:21:02.062Z,199.54
2023-04-16T05:22:02.067Z,198.97
2023-04-16T05:23:02.107Z,202.30
2023-04-16T05:24:02.160Z,201.05
2023-04-16T05:25:02.191Z,197.51
2023-04-16T05:26:02.261Z,197.49
2023-04-16T05:27:02.281Z,192.82
2023-04-16T05:28:02.273Z,192.35
2023-04-16T05:29:02.424Z,186.50
2023-04-16T05:30:02.341Z,185.26
2023-04-16T05:31:02.443Z,181.78
2023-04-16T05:32:02.425Z,176.82
2023-04-16T05:33:02.518Z,177.62
2023-04-16T05:34:02.523Z,177.60
2023-04-16T05:35:02.548Z,176.66
2023-04-16T05:36:02.564Z,179.44
2023-04-16T05:37:02.611Z,184.17
2023-04-16T05:38:02.627Z,185.17
2023-04-16T05:39:02.686Z,190.76
2023-04-16T05:40:02.696Z,178.14
2023-04-16T05:41:02.730Z,179.49
2023-04-16T05:42:02.801Z,178.76
2023-04-16T05:43:02.797Z,172.66
2023-04-16T05:44:02.850Z,178.46
2023-04-16T05:45:02.873Z,179.35
2023-04-16T05:46:02.939Z,187.80
2023-04-16T05:47:02.944Z,190.49
2023-04-16T05:48:02.974Z,195.34
2023-04-16T05:49:03.052Z,183.68
2023-04-16T05:50:03.036Z,182.19
2023-04-16T05:51:03.076Z,188.84
2023-04-16T05:52:03.108Z,187.23
2023-04-16T05:53:03.166Z,184.16
2023-04-16T05:54:03.187Z,180.53
2023-04-16T05:55:03.232Z,178.76
2023-04-16T05:56:03.265Z,177.82
2023-04-16T05:57:03.288Z,181.37
2023-04-16T05:58:03.311Z,188.37
2023-04-16T05:59:03.381Z,187.85
2023-04-16T06:00:03.409Z,187.95
2023-04-16T06:01:03.436Z,187.64
2023-04-16T06:02:03.507Z,180.84
2023-04-16T06:03:03.683Z,179.48
2023-04-16T06:04:03.727Z,176.56
2023-04-16T06:05:03.626Z,175.48
2023-04-16T06:06:03.649Z,173.95
2023-04-16T06:07:03.675Z,170.47
2023-04-16T06:08:03.725Z,165.29
2023-04-16T06:09:03.724Z,159.66
2023-04-16T06:10:03.749Z,159.34
2023-04-16T06:11:03.763Z,155.73
2023-04-16T06:12:03.797Z,166.64
2023-04-16T06:13:03.834Z,166.90
2023-04-16T06:14:03.873Z,175.51
2023-04-16T06:15:03.933Z,184.83
2023-04-16T06:16:03.997Z,191.08
2023-04-16T06:17:03.971Z,202.20
2023-04-16T06:18:04.034Z,201.58
2023-04-16T06:19:04.040Z,209.76
2023-04-16T06:20:04.076Z,207.67
2023-04-16T06:21:04.127Z,202.54
2023-04-16T06:22:04.158Z,191.59
2023-04-16T06:23:04.178Z,181.15
2023-04-16T06:24:04.225Z,173.17
2023-04-16T06:25:04.273Z,176.13
2023-04-16T06:26:04.310Z,178.26
2023-04-16T06:27:04.349Z,186.46
2023-04-16T06:28:04.355Z,188.65
2023-04-16T06:29:04.380Z,188.43
2023-04-16T06:30:04.495Z,185.99
2023-04-16T06:31:04.491Z,194.08
2023-04-16T06:32:04.512Z,191.96
2023-04-16T06:33:04.624Z,192.94
2023-04-16T06:34:04.580Z,189.29
2023-04-16T06:35:04.655Z,187.15
2023-04-16T06:36:04.674Z,182.66
2023-04-16T06:37:04.688Z,173.21
2023-04-16T06:38:04.718Z,164.94
2023-04-16T06:39:04.761Z,165.67
2023-04-16T06:40:04.926Z,176.07
2023-04-16T06:41:04.840Z,176.39
2023-04-16T06:42:04.863Z,170.98
2023-04-16T06:43:04.913Z,174.59
2023-04-16T06:44:04.961Z,188.41
2023-04-16T06:45:04.997Z,186.45
2023-04-16T06:46:05.024Z,193.55
2023-04-16T06:47:05.170Z,193.96
2023-04-16T06:48:05.136Z,193.66
2023-04-16T06:49:05.120Z,195.04
2023-04-16T06:50:05.155Z,191.68
2023-04-16T06:51:05.193Z,189.72
2023-04-16T06:52:06.027Z,182.25
2023-04-16T06:53:05.227Z,184.23
2023-04-16T06:54:05.256Z,194.36
2023-04-16T06:55:05.322Z,205.35
2023-04-16T06:56:05.351Z,217.85
2023-04-16T06:57:05.361Z,217.32
2023-04-16T06:58:05.432Z,208.80
2023-04-16T06:59:05.456Z,205.76
2023-04-16T07:00:05.492Z,209.41
2023-04-16T07:01:05.642Z,203.33
2023-04-16T07:02:05.632Z,199.02
2023-04-16T07:03:05.758Z,196.63
2023-04-16T07:04:05.741Z,195.77
2023-04-16T07:05:05.706Z,190.71
2023-04-16T07:06:05.697Z,193.47
2023-04-16T07:07:05.747Z,185.61
2023-04-16T07:08:05.781Z,183.01
2023-04-16T07:09:05.825Z,176.48
2023-04-16T07:10:05.880Z,181.97
2023-04-16T07:11:05.872Z,182.58
2023-04-16T07:12:05.912Z,181.71
2023-04-16T07:13:05.951Z,182.83
2023-04-16T07:14:06.010Z,179.56
2023-04-16T07:15:06.062Z,174.86
2023-04-16T07:16:06.117Z,174.89
2023-04-16T07:17:06.075Z,177.42
2023-04-16T07:18:06.170Z,165.47
2023-04-16T07:19:06.134Z,164.99
2023-04-16T07:20:06.215Z,175.79
2023-04-16T07:21:06.238Z,170.49
2023-04-16T07:22:06.293Z,167.67
2023-04-16T07:23:06.336Z,171.47
2023-04-16T07:24:06.387Z,171.56
2023-04-16T07:25:06.442Z,173.88
2023-04-16T07:26:06.488Z,180.37
2023-04-16T07:27:06.533Z,181.44
2023-04-16T07:28:06.597Z,185.74
2023-04-16T07:29:06.652Z,188.02
2023-04-16T07:30:06.706Z,198.09
2023-04-16T07:31:06.747Z,208.04
2023-04-16T07:32:06.815Z,195.04
2023-04-16T07:33:06.906Z,193.00
2023-04-16T07:34:06.879Z,194.97
2023-04-16T07:35:06.886Z,192.12
2023-04-16T07:36:06.895Z,196.13
2023-04-16T07:37:06.944Z,193.86
2023-04-16T07:38:07.005Z,210.50
2023-04-16T07:39:07.068Z,207.78
2023-04-16T07:40:07.132Z,207.40
2023-04-16T07:41:07.167Z,210.78
2023-04-16T07:42:07.217Z,210.71
2023-04-16T07:43:07.274Z,215.77
2023-04-16T07:44:07.301Z,207.80
2023-04-16T07:45:07.342Z,212.27
2023-04-16T07:46:07.442Z,211.80
2023-04-16T07:47:07.351Z,204.13
2023-04-16T07:48:07.373Z,207.29
2023-04-16T07:49:07.533Z,205.44
2023-04-16T07:50:07.449Z,203.23
2023-04-16T07:51:07.484Z,217.04
2023-04-16T07:52:07.554Z,217.36
2023-04-16T07:53:07.612Z,212.75
2023-04-16T07:54:07.993Z,213.55
2023-04-16T07:55:07.691Z,211.57
2023-04-16T07:56:07.726Z,211.31
2023-04-16T07:57:07.722Z,213.41
2023-04-16T07:58:07.726Z,219.14
2023-04-16T07:59:21.065Z,220.84
2023-04-16T08:00:08.743Z,215.79
2023-04-16T08:01:07.745Z,213.86
2023-04-16T08:02:07.775Z,211.00
2023-04-16T08:03:08.596Z,220.99
2023-04-16T08:04:07.950Z,216.45
2023-04-16T08:05:07.749Z,222.44
2023-04-16T08:06:07.724Z,229.85
2023-04-16T08:07:07.711Z,222.38
2023-04-16T08:08:07.699Z,229.12
2023-04-16T08:09:07.840Z,222.44
2023-04-16T08:10:07.676Z,235.88
2023-04-16T08:11:07.671Z,233.78
2023-04-16T08:12:07.725Z,233.73
2023-04-16T08:13:07.759Z,229.75
2023-04-16T08:14:07.806Z,229.30
2023-04-16T08:15:07.848Z,232.33
2023-04-16T08:16:07.956Z,235.64
2023-04-16T08:17:07.916Z,233.94
2023-04-16T08:18:07.988Z,232.96
2023-04-16T08:19:08.107Z,224.72
2023-04-16T08:20:08.042Z,232.18
2023-04-16T08:21:08.069Z,236.13
2023-04-16T08:22:08.112Z,247.50
2023-04-16T08:23:08.154Z,239.50
2023-04-16T08:24:08.173Z,241.07
2023-04-16T08:25:08.241Z,242.77
2023-04-16T08:26:08.277Z,248.20
2023-04-16T08:27:18.421Z,250.38
2023-04-16T08:28:09.298Z,250.41
2023-04-16T08:29:08.485Z,250.51
2023-04-16T08:30:08.288Z,251.58
2023-04-16T08:31:08.314Z,255.36
2023-04-16T08:32:08.261Z,269.40
2023-04-16T08:33:08.309Z,249.45
2023-04-16T08:34:08.268Z,249.57
2023-04-16T08:35:08.278Z,243.73
2023-04-16T08:36:08.234Z,246.20
2023-04-16T08:37:08.237Z,250.00
2023-04-16T08:38:08.226Z,247.89
2023-04-16T08:39:08.423Z,250.08
2023-04-16T08:40:08.236Z,247.92
2023-04-16T08:41:08.264Z,245.93
2023-04-16T08:42:08.300Z,248.71
2023-04-16T08:43:08.308Z,243.73
2023-04-16T08:44:08.394Z,248.35
2023-04-16T08:45:08.382Z,249.37
2023-04-16T08:46:08.444Z,246.14
2023-04-16T08:47:08.494Z,245.49
2023-04-16T08:48:08.477Z,247.15
2023-04-16T08:49:08.703Z,247.01
2023-04-16T08:50:08.547Z,246.28
2023-04-16T08:51:08.597Z,247.51
2023-04-16T08:52:08.610Z,244.73
2023-04-16T08:53:08.670Z,247.87
2023-04-16T08:54:08.706Z,250.00
2023-04-16T08:55:08.727Z,247.97
2023-04-16T08:56:08.766Z,245.14
2023-04-16T08:57:08.790Z,246.85
2023-04-16T08:58:08.817Z,244.58
2023-04-16T08:59:09.027Z,247.33
2023-04-16T09:00:08.891Z,246.46
2023-04-16T09:01:08.943Z,246.03
2023-04-16T09:02:09.092Z,247.69
2023-04-16T09:03:09.201Z,250.21
2023-04-16T09:04:09.324Z,250.00
2023-04-16T09:05:09.092Z,244.21
2023-04-16T09:06:09.165Z,248.51
2023-04-16T09:07:09.184Z,248.68
2023-04-16T09:08:09.226Z,248.67
2023-04-16T09:09:09.600Z,247.38
2023-04-16T09:10:09.297Z,243.19
2023-04-16T09:11:09.315Z,249.33
2023-04-16T09:12:09.381Z,247.44
2023-04-16T09:13:09.364Z,244.92
2023-04-16T09:14:09.412Z,244.62
2023-04-16T09:15:09.488Z,244.31
2023-04-16T09:16:09.560Z,239.20
2023-04-16T09:17:09.534Z,242.34
2023-04-16T09:18:09.576Z,241.03
2023-04-16T09:19:09.836Z,243.34
2023-04-16T09:20:09.619Z,242.57
2023-04-16T09:21:09.673Z,244.65
2023-04-16T09:22:09.702Z,246.39
2023-04-16T09:23:09.719Z,243.66
2023-04-16T09:24:09.756Z,238.06
2023-04-16T09:25:09.819Z,240.43
2023-04-16T09:26:09.848Z,240.40
2023-04-16T09:27:09.885Z,246.97
2023-04-16T09:28:09.932Z,249.32
2023-04-16T09:29:10.129Z,248.63
2023-04-16T09:30:10.033Z,245.63
2023-04-16T09:31:10.042Z,244.18
2023-04-16T09:32:10.257Z,243.30
2023-04-16T09:33:10.098Z,249.71
2023-04-16T09:34:10.146Z,244.91
2023-04-16T09:35:10.159Z,240.39
2023-04-16T09:36:10.194Z,244.32
2023-04-16T09:37:10.230Z,247.17
2023-04-16T09:38:10.244Z,247.73
2023-04-16T09:39:10.449Z,250.00
2023-04-16T09:40:10.320Z,249.70
2023-04-16T09:41:10.345Z,246.50
2023-04-16T09:42:10.370Z,247.76
2023-04-16T09:43:10.365Z,246.99
2023-04-16T09:44:10.406Z,250.00
2023-04-16T09:45:10.468Z,245.02
2023-04-16T09:46:10.557Z,247.43
2023-04-16T09:47:10.551Z,247.79
2023-04-16T09:48:10.572Z,249.77
2023-04-16T09:49:10.931Z,248.87
2023-04-16T09:50:12.701Z,247.90
2023-04-16T09:51:10.824Z,246.68
2023-04-16T09:52:10.836Z,248.84
2023-04-16T09:53:10.851Z,249.64
2023-04-16T09:54:10.904Z,249.51
2023-04-16T09:55:10.943Z,248.02
2023-04-16T09:56:10.956Z,244.46
2023-04-16T09:57:11.002Z,247.75
2023-04-16T09:58:11.031Z,246.34
2023-04-16T09:59:11.274Z,249.77
2023-04-16T10:00:11.404Z,248.57
2023-04-16T10:01:11.197Z,248.54
2023-04-16T10:02:15.005Z,250.00
2023-04-16T10:03:11.324Z,250.01
2023-04-16T10:04:11.246Z,248.80
2023-04-16T10:05:11.155Z,243.70
2023-04-16T10:06:11.161Z,247.62
2023-04-16T10:07:11.141Z,252.20
2023-04-16T10:08:11.137Z,249.29
2023-04-16T10:09:11.308Z,248.40
2023-04-16T10:10:11.137Z,250.00
2023-04-16T10:11:11.132Z,248.51
2023-04-16T10:12:11.118Z,248.36
2023-04-16T10:13:11.112Z,249.88
2023-04-16T10:14:11.104Z,246.01
2023-04-16T10:15:11.096Z,244.05
2023-04-16T10:16:11.077Z,244.99
2023-04-16T10:17:11.110Z,248.04
2023-04-16T10:18:11.096Z,250.00
2023-04-16T10:19:11.241Z,248.53
2023-04-16T10:20:11.053Z,248.24
2023-04-16T10:21:11.048Z,249.24
2023-04-16T10:22:11.054Z,247.46
2023-04-16T10:23:11.022Z,246.20
2023-04-16T10:24:11.053Z,247.17
2023-04-16T10:25:11.061Z,247.93
2023-04-16T10:26:11.080Z,246.30
2023-04-16T10:27:11.075Z,249.91
2023-04-16T10:28:11.087Z,247.90
2023-04-16T10:29:11.255Z,242.54
2023-04-16T10:30:11.133Z,243.98
2023-04-16T10:31:11.253Z,242.45
2023-04-16T10:32:11.168Z,238.57
2023-04-16T10:33:11.235Z,240.79
2023-04-16T10:34:11.174Z,243.95
2023-04-16T10:35:11.205Z,243.95
2023-04-16T10:36:11.231Z,245.24
2023-04-16T10:37:11.238Z,240.83
2023-04-16T10:38:11.226Z,237.12
2023-04-16T10:39:11.614Z,234.57
2023-04-16T10:40:11.322Z,234.77
2023-04-16T10:41:11.371Z,231.32
2023-04-16T10:42:11.421Z,233.24
2023-04-16T10:43:11.486Z,228.79
2023-04-16T10:44:11.522Z,228.25
2023-04-16T10:45:11.581Z,222.77
2023-04-16T10:46:11.636Z,223.75
2023-04-16T10:47:11.604Z,222.43
2023-04-16T10:48:11.625Z,220.81
2023-04-16T10:49:11.781Z,223.18
2023-04-16T10:50:11.654Z,225.97
2023-04-16T10:51:11.695Z,224.11
2023-04-16T10:52:11.703Z,227.87
2023-04-16T10:53:11.763Z,227.02
2023-04-16T10:54:11.787Z,226.80
2023-04-16T10:55:11.812Z,226.93
2023-04-16T10:56:11.842Z,226.04
2023-04-16T10:57:11.879Z,230.32
2023-04-16T10:58:11.954Z,232.06
2023-04-16T10:59:12.173Z,231.56
2023-04-16T11:00:12.060Z,230.38
2023-04-16T11:01:12.127Z,234.22
2023-04-16T11:02:12.257Z,230.67
2023-04-16T11:03:12.344Z,224.63
2023-04-16T11:04:12.396Z,221.67
2023-04-16T11:05:12.260Z,222.70
2023-04-16T11:06:12.261Z,220.35
2023-04-16T11:07:12.294Z,214.13
2023-04-16T11:08:12.279Z,211.97
2023-04-16T11:09:12.458Z,210.30
2023-04-16T11:10:12.308Z,208.95
2023-04-16T11:11:12.307Z,207.06
2023-04-16T11:12:12.342Z,206.75
2023-04-16T11:13:12.332Z,206.33
2023-04-16T11:14:12.353Z,203.93
2023-04-16T11:15:12.401Z,201.14
2023-04-16T11:16:12.482Z,200.95
2023-04-16T11:17:12.409Z,207.57
2023-04-16T11:18:12.430Z,206.44
2023-04-16T11:19:12.450Z,212.12
2023-04-16T11:20:19.501Z,211.03
2023-04-16T11:21:13.466Z,211.20
2023-04-16T11:22:12.445Z,211.04
2023-04-16T11:23:12.452Z,210.60
2023-04-16T11:24:12.440Z,209.65
2023-04-16T11:25:12.427Z,207.96
2023-04-16T11:26:12.411Z,209.87
2023-04-16T11:27:12.422Z,209.93
2023-04-16T11:28:12.409Z,208.88
2023-04-16T11:29:12.398Z,206.75
2023-04-16T11:30:12.417Z,207.08
2023-04-16T11:31:12.447Z,206.42
2023-04-16T11:32:12.435Z,203.99
2023-04-16T11:33:12.430Z,204.78
2023-04-16T11:34:12.457Z,208.12
2023-04-16T11:35:12.462Z,204.91
2023-04-16T11:36:12.483Z,207.09
2023-04-16T11:37:12.509Z,205.11
2023-04-16T11:38:12.518Z,206.49
2023-04-16T11:39:12.723Z,205.58
2023-04-16T11:40:12.548Z,212.63
2023-04-16T11:41:12.526Z,216.09
2023-04-16T11:42:12.564Z,216.41
2023-04-16T11:43:12.595Z,212.51
2023-04-16T11:44:12.613Z,207.14
2023-04-16T11:45:12.649Z,206.81
2023-04-16T11:46:26.343Z,206.59
2023-04-16T11:47:13.750Z,206.91
2023-04-16T11:48:12.651Z,208.06
2023-04-16T11:49:12.883Z,209.47
2023-04-16T11:50:12.725Z,213.96
2023-04-16T11:51:12.612Z,217.02
2023-04-16T11:52:12.627Z,217.51
2023-04-16T11:53:12.604Z,223.32
2023-04-16T11:54:12.574Z,225.59
2023-04-16T11:55:12.585Z,223.80
2023-04-16T11:56:12.567Z,228.59
2023-04-16T11:57:12.565Z,231.28
2023-04-16T11:58:12.554Z,229.38
2023-04-16T11:59:13.132Z,232.62
2023-04-16T12:00:12.612Z,235.91
2023-04-16T12:01:12.530Z,238.50
2023-04-16T12:02:12.609Z,242.63
2023-04-16T12:03:12.703Z,246.21
2023-04-16T12:04:12.708Z,245.22
2023-04-16T12:05:12.713Z,246.05
2023-04-16T12:06:12.704Z,244.74
2023-04-16T12:07:12.762Z,242.53
2023-04-16T12:08:12.809Z,239.62
2023-04-16T12:09:12.840Z,239.80
2023-04-16T12:10:12.834Z,240.85
2023-04-16T12:11:12.858Z,235.42
2023-04-16T12:12:12.924Z,228.00
2023-04-16T12:13:12.962Z,222.45
2023-04-16T12:14:13.006Z,223.66
2023-04-16T12:15:13.019Z,219.97
2023-04-16T12:16:13.069Z,219.04
2023-04-16T12:17:13.134Z,217.82
2023-04-16T12:18:13.104Z,220.75
2023-04-16T12:19:13.266Z,215.22
2023-04-16T12:20:13.122Z,215.48
2023-04-16T12:21:13.179Z,222.22
2023-04-16T12:22:13.235Z,230.23
2023-04-16T12:23:13.239Z,224.48
2023-04-16T12:24:13.260Z,228.13
2023-04-16T12:25:13.347Z,235.91
2023-04-16T12:26:13.318Z,237.14
2023-04-16T12:27:13.357Z,234.40
2023-04-16T12:28:13.404Z,243.46
2023-04-16T12:29:13.425Z,243.14
2023-04-16T12:30:13.439Z,247.98
2023-04-16T12:31:13.560Z,250.00
2023-04-16T12:32:13.534Z,245.75
2023-04-16T12:33:13.613Z,249.65